Time;durP1;ratioP1;P1;durP2;ratioP2;P2;SDS_P1;SDS_P2;PMS_P1;PMS_P2;Temp;Humidity;BMP_temperature;BMP_pressure;BME280_temperature;BME280_humidity;BME280_pressure;Samples;Min_cycle;Max_cycle;Signal;HPM_P1;HPM_P2
2021/06/23 00:00:01;;;;;;;27.87;19.13;;;20.10;99.90;;;;;;4445194;28;659112;-74
2021/06/23 00:02:49;;;;;;;29.50;20.00;;;20.10;99.90;;;;;;4428264;28;658503;-74
2021/06/23 00:05:36;;;;;;;31.27;20.90;;;20.10;99.90;;;;;;4439008;28;658870;-74
2021/06/23 00:08:26;;;;;;;33.07;21.40;;;20.10;99.90;;;;;;4403863;28;659015;-74
2021/06/23 00:11:13;;;;;;;34.43;20.73;;;20.10;99.90;;;;;;4411714;28;658743;-74
2021/06/23 00:14:01;;;;;;;37.43;22.57;;;20.10;99.90;;;;;;4437633;28;658629;-74
2021/06/23 00:16:49;;;;;;;43.92;23.85;;;20.10;99.90;;;;;;4415952;28;658875;-74
2021/06/23 00:19:36;;;;;;;42.40;25.60;;;20.10;99.90;;;;;;4445602;28;659063;-74
2021/06/23 00:22:24;;;;;;;51.07;25.93;;;20.10;99.90;;;;;;4411039;28;658634;-74
2021/06/23 00:25:15;;;;;;;43.88;26.55;;;20.10;99.90;;;;;;4418157;28;659003;-73
2021/06/23 00:28:02;;;;;;;47.60;27.90;;;20.10;99.90;;;;;;4407572;28;658683;-73
2021/06/23 00:30:50;;;;;;;38.50;25.33;;;20.10;99.90;;;;;;4415331;28;659970;-73
2021/06/23 00:33:38;;;;;;;47.50;26.50;;;20.10;99.90;;;;;;4411355;28;659381;-74
2021/06/23 00:36:25;;;;;;;41.00;26.00;;;20.10;99.90;;;;;;4431059;28;659194;-74
2021/06/23 00:39:13;;;;;;;46.03;25.23;;;20.10;99.90;;;;;;4427399;28;658658;-74
2021/06/23 00:42:02;;;;;;;41.13;24.33;;;20.10;99.90;;;;;;4439012;28;658689;-74
2021/06/23 00:44:50;;;;;;;39.97;24.20;;;20.20;99.90;;;;;;4414560;28;659565;-74
2021/06/23 00:47:38;;;;;;;37.17;23.63;;;20.20;99.90;;;;;;4428924;28;658511;-74
2021/06/23 00:50:25;;;;;;;36.23;23.30;;;20.20;99.90;;;;;;4427158;28;659929;-74
2021/06/23 00:53:14;;;;;;;39.50;23.10;;;20.20;99.90;;;;;;4407832;28;658750;-74
2021/06/23 00:56:01;;;;;;;38.80;22.63;;;20.20;99.90;;;;;;4432391;28;659557;-74
2021/06/23 00:58:50;;;;;;;39.13;22.90;;;20.20;99.90;;;;;;4412028;28;658924;-74
2021/06/23 01:01:40;;;;;;;34.87;22.07;;;20.20;99.90;;;;;;4421125;28;658511;-74
2021/06/23 01:04:28;;;;;;;33.87;21.83;;;20.20;99.90;;;;;;4430083;28;660332;-74
2021/06/23 01:07:16;;;;;;;30.60;20.90;;;20.20;99.90;;;;;;4433695;28;658874;-74
2021/06/23 01:10:03;;;;;;;35.90;21.00;;;20.20;99.90;;;;;;4405547;28;658315;-73
2021/06/23 01:13:03;;;;;;;31.20;21.13;;;20.30;99.90;;;;;;4437334;28;659052;-74
2021/06/23 01:15:52;;;;;;;31.57;20.40;;;20.30;99.90;;;;;;4407358;28;658980;-74
2021/06/23 01:18:40;;;;;;;32.27;20.40;;;20.30;99.90;;;;;;4412643;28;659547;-74
2021/06/23 01:21:28;;;;;;;29.47;20.27;;;20.30;99.90;;;;;;4436119;28;659284;-74
2021/06/23 01:24:17;;;;;;;34.43;20.00;;;20.20;99.90;;;;;;4439171;28;658862;-74
2021/06/23 01:27:06;;;;;;;37.57;21.70;;;20.30;99.90;;;;;;4413535;28;659123;-74
2021/06/23 01:29:53;;;;;;;33.83;23.00;;;20.30;99.90;;;;;;4425731;28;659301;-74
2021/06/23 01:32:41;;;;;;;30.90;21.67;;;20.30;99.90;;;;;;4423832;28;659657;-74
2021/06/23 01:35:30;;;;;;;35.67;21.60;;;20.30;99.90;;;;;;4418862;28;658440;-74
2021/06/23 01:38:18;;;;;;;38.10;22.13;;;20.40;99.90;;;;;;4421318;28;658997;-74
2021/06/23 01:41:07;;;;;;;38.43;22.93;;;20.40;99.90;;;;;;4434070;28;659410;-74
2021/06/23 01:43:55;;;;;;;43.13;25.03;;;20.40;99.90;;;;;;4418853;28;659793;-74
2021/06/23 01:46:43;;;;;;;36.03;23.57;;;20.40;99.90;;;;;;4426798;28;659137;-74
2021/06/23 01:49:31;;;;;;;41.23;23.93;;;20.40;99.90;;;;;;4449051;28;658653;-74
2021/06/23 01:52:18;;;;;;;44.73;26.30;;;20.40;99.90;;;;;;4426922;28;658429;-74
2021/06/23 01:55:07;;;;;;;38.53;24.47;;;20.40;99.90;;;;;;4436637;28;659237;-74
2021/06/23 01:57:59;;;;;;;46.83;25.57;;;20.40;99.90;;;;;;4421280;28;659412;-74
2021/06/23 02:00:50;;;;;;;46.90;26.30;;;20.40;99.90;;;;;;4425425;28;659114;-74
2021/06/23 02:04:07;;;;;;;54.90;27.03;;;20.40;99.90;;;;;;4412409;28;658836;-74
2021/06/23 02:07:16;;;;;;;48.57;28.07;;;20.40;99.90;;;;;;4428624;28;658792;-74
2021/06/23 02:10:07;;;;;;;45.97;27.17;;;20.30;99.90;;;;;;4380725;28;658915;-74
2021/06/23 02:13:40;;;;;;;48.20;27.80;;;20.40;99.90;;;;;;4428066;28;659863;-74
2021/06/23 02:16:29;;;;;;;45.97;25.90;;;20.40;99.90;;;;;;4308602;28;660051;-74
2021/06/23 02:19:17;;;;;;;43.40;23.70;;;20.40;99.90;;;;;;4344193;28;659166;-74
2021/06/23 02:22:05;;;;;;;44.17;24.73;;;20.40;99.90;;;;;;4316770;28;659666;-74
2021/06/23 02:24:54;;;;;;;42.97;25.27;;;20.40;99.90;;;;;;4309774;28;658614;-73
2021/06/23 02:27:42;;;;;;;42.90;24.03;;;20.40;99.90;;;;;;4343659;28;658773;-73
2021/06/23 02:30:30;;;;;;;40.50;24.20;;;20.40;99.90;;;;;;4316420;28;659546;-73
2021/06/23 02:33:19;;;;;;;43.10;23.10;;;20.40;99.90;;;;;;4326427;28;659101;-73
2021/06/23 02:36:08;;;;;;;41.87;22.57;;;20.30;99.90;;;;;;4331143;28;658405;-73
2021/06/23 02:38:55;;;;;;;39.83;21.70;;;20.30;99.90;;;;;;4325551;28;659397;-73
2021/06/23 02:41:43;;;;;;;42.07;22.93;;;20.30;99.90;;;;;;4314296;28;658502;-73
2021/06/23 02:44:30;;;;;;;39.77;23.07;;;20.30;99.90;;;;;;4329522;28;658929;-73
2021/06/23 02:47:19;;;;;;;37.93;20.97;;;20.20;99.90;;;;;;4296037;28;658767;-73
2021/06/23 02:50:10;;;;;;;42.53;21.83;;;20.20;99.90;;;;;;4324405;28;659835;-73
2021/06/23 02:52:57;;;;;;;36.70;21.43;;;20.20;99.90;;;;;;4309756;28;658947;-73
2021/06/23 02:55:45;;;;;;;37.53;21.40;;;20.20;99.90;;;;;;4367578;28;659069;-73
2021/06/23 02:58:33;;;;;;;35.47;21.93;;;20.10;99.90;;;;;;4442220;28;658602;-73
2021/06/23 03:01:21;;;;;;;32.70;20.23;;;20.10;99.90;;;;;;4431725;28;658598;-73
2021/06/23 03:04:08;;;;;;;36.87;21.57;;;20.10;99.90;;;;;;4412174;28;658636;-73
2021/06/23 03:07:06;;;;;;;33.33;19.60;;;20.10;99.90;;;;;;4438871;28;658830;-73
2021/06/23 03:10:02;;;;;;;37.80;21.83;;;20.10;99.90;;;;;;4384113;28;658869;-73
2021/06/23 03:12:50;;;;;;;36.10;21.40;;;20.10;99.90;;;;;;4394079;28;659094;-73
2021/06/23 03:15:38;;;;;;;37.37;21.77;;;20.10;99.90;;;;;;4442128;28;658310;-73
2021/06/23 03:18:28;;;;;;;36.17;20.80;;;20.10;99.90;;;;;;4451339;28;659211;-73
2021/06/23 03:21:16;;;;;;;34.80;20.73;;;20.10;99.90;;;;;;4424846;28;659203;-73
2021/06/23 03:24:07;;;;;;;34.30;20.23;;;20.00;99.90;;;;;;4416120;28;659099;-73
2021/06/23 03:26:54;;;;;;;31.63;18.73;;;20.00;99.90;;;;;;4428411;28;659700;-73
2021/06/23 03:29:42;;;;;;;30.73;18.40;;;20.00;99.90;;;;;;4429325;28;658986;-73
2021/06/23 03:32:30;;;;;;;30.00;17.47;;;20.10;99.90;;;;;;4408622;28;659475;-73
2021/06/23 03:35:19;;;;;;;27.13;16.33;;;20.10;99.90;;;;;;4399316;28;658759;-73
2021/06/23 03:38:07;;;;;;;25.53;16.70;;;20.20;99.90;;;;;;4438992;28;658599;-73
2021/06/23 03:40:56;;;;;;;23.17;15.60;;;20.20;99.90;;;;;;4414895;28;659217;-73
2021/06/23 03:43:44;;;;;;;29.67;16.60;;;20.10;99.90;;;;;;4421342;28;659133;-73
2021/06/23 03:46:32;;;;;;;25.77;16.52;;;20.10;99.90;;;;;;4425917;28;658444;-73
2021/06/23 03:49:19;;;;;;;24.53;14.83;;;20.10;99.90;;;;;;4408415;28;659764;-73
2021/06/23 03:52:08;;;;;;;28.13;15.13;;;20.10;99.90;;;;;;4435644;28;658836;-73
2021/06/23 03:54:55;;;;;;;25.33;14.63;;;20.10;99.90;;;;;;4427805;28;658854;-73
2021/06/23 03:57:44;;;;;;;24.20;14.20;;;20.00;99.90;;;;;;4412633;28;658769;-73
2021/06/23 04:00:33;;;;;;;24.83;14.17;;;20.00;99.90;;;;;;4438456;28;659544;-73
2021/06/23 04:03:20;;;;;;;27.87;15.77;;;20.00;99.90;;;;;;4423491;28;659517;-73
2021/06/23 04:06:08;;;;;;;25.60;15.93;;;20.00;99.90;;;;;;4412289;28;658747;-73
2021/06/23 04:08:56;;;;;;;25.77;16.03;;;20.00;99.90;;;;;;4449638;28;659622;-73
2021/06/23 04:11:44;;;;;;;33.47;19.23;;;20.10;99.90;;;;;;4411958;28;658659;-73
2021/06/23 04:14:33;;;;;;;29.07;17.57;;;20.10;99.90;;;;;;4430928;28;659602;-73
2021/06/23 04:17:21;;;;;;;33.73;20.20;;;20.10;99.90;;;;;;4400549;28;658968;-73
2021/06/23 04:20:09;;;;;;;38.10;20.27;;;20.20;99.90;;;;;;4410391;28;659175;-73
2021/06/23 04:22:57;;;;;;;36.30;20.20;;;20.20;99.90;;;;;;4415131;28;658511;-73
2021/06/23 04:25:44;;;;;;;36.37;20.53;;;20.20;99.90;;;;;;4420374;28;659234;-73
2021/06/23 04:28:32;;;;;;;38.03;21.00;;;20.20;99.90;;;;;;4445364;28;658513;-73
2021/06/23 04:31:21;;;;;;;33.83;19.57;;;20.20;99.90;;;;;;4418460;28;658967;-73
2021/06/23 04:34:09;;;;;;;32.57;18.60;;;20.20;99.90;;;;;;4402547;28;659229;-73
2021/06/23 04:36:57;;;;;;;30.93;17.43;;;20.20;99.90;;;;;;4430435;28;658388;-73
2021/06/23 04:39:44;;;;;;;35.00;18.83;;;20.20;99.90;;;;;;4418517;28;659367;-73
2021/06/23 04:42:32;;;;;;;29.07;18.03;;;20.20;99.90;;;;;;4422000;28;658836;-73
2021/06/23 04:45:20;;;;;;;35.50;19.73;;;20.20;99.90;;;;;;4407574;28;659866;-73
2021/06/23 04:48:10;;;;;;;32.00;18.83;;;20.20;99.90;;;;;;4431803;28;658872;-73
2021/06/23 04:50:58;;;;;;;33.83;18.98;;;20.20;99.90;;;;;;4416832;28;658828;-73
2021/06/23 04:53:46;;;;;;;37.07;20.23;;;20.30;99.90;;;;;;4436179;28;659415;-73
2021/06/23 04:56:33;;;;;;;30.07;17.10;;;20.30;99.90;;;;;;4411374;28;659042;-73
2021/06/23 04:59:21;;;;;;;32.53;17.20;;;20.40;99.90;;;;;;4425620;28;659057;-73
2021/06/23 05:02:09;;;;;;;32.10;16.93;;;20.40;99.90;;;;;;4411511;28;658656;-73
2021/06/23 05:04:59;;;;;;;28.20;16.63;;;20.40;99.90;;;;;;4446199;28;659196;-73
2021/06/23 05:07:48;;;;;;;28.37;16.10;;;20.40;99.90;;;;;;4414776;28;658418;-73
2021/06/23 05:10:36;;;;;;;28.83;16.23;;;20.40;99.90;;;;;;4434380;28;659202;-73
2021/06/23 05:13:23;;;;;;;28.70;16.30;;;20.50;99.90;;;;;;4411885;28;659178;-73
2021/06/23 05:16:11;;;;;;;25.50;16.10;;;20.50;99.90;;;;;;4430018;28;659055;-73
2021/06/23 05:18:59;;;;;;;28.17;16.97;;;20.60;99.90;;;;;;4400169;28;659979;-73
2021/06/23 05:21:49;;;;;;;30.00;16.00;;;20.60;99.90;;;;;;4438914;28;658720;-73
2021/06/23 05:24:38;;;;;;;31.50;16.07;;;20.70;99.90;;;;;;4423632;28;658962;-73
2021/06/23 05:27:26;;;;;;;29.30;16.00;;;20.70;99.90;;;;;;4423170;28;658808;-73
2021/06/23 05:30:14;;;;;;;26.10;15.03;;;20.70;99.90;;;;;;4421902;28;658498;-73
2021/06/23 05:33:02;;;;;;;29.00;15.70;;;20.70;99.90;;;;;;4442867;28;659496;-73
2021/06/23 05:35:50;;;;;;;26.00;14.80;;;20.70;99.90;;;;;;4411385;28;659075;-73
2021/06/23 05:38:39;;;;;;;27.13;14.20;;;20.70;99.90;;;;;;4438683;28;658661;-73
2021/06/23 05:41:27;;;;;;;26.17;13.47;;;20.70;99.90;;;;;;4451590;28;658827;-73
2021/06/23 05:44:15;;;;;;;25.83;13.67;;;20.80;99.90;;;;;;4422897;28;658692;-73
2021/06/23 05:47:03;;;;;;;22.60;13.67;;;20.80;99.90;;;;;;4429677;28;659082;-73
2021/06/23 05:49:51;;;;;;;22.27;13.77;;;20.80;99.90;;;;;;4436798;28;659170;-73
2021/06/23 05:52:38;;;;;;;24.13;13.77;;;20.90;99.90;;;;;;4417447;28;658234;-73
2021/06/23 05:55:27;;;;;;;25.70;15.00;;;20.90;99.90;;;;;;4434228;28;659555;-73
2021/06/23 05:58:15;;;;;;;28.90;14.17;;;20.90;99.90;;;;;;4423878;28;659620;-73
2021/06/23 06:01:05;;;;;;;33.77;15.03;;;21.00;99.90;;;;;;4413670;28;658469;-73
2021/06/23 06:03:53;;;;;;;31.13;15.10;;;21.10;99.90;;;;;;4414704;28;659042;-73
2021/06/23 06:06:52;;;;;;;26.83;13.63;;;21.30;99.90;;;;;;4439667;28;659543;-73
2021/06/23 06:09:39;;;;;;;26.37;14.93;;;21.40;99.90;;;;;;4426735;28;658449;-73
2021/06/23 06:12:28;;;;;;;23.73;14.60;;;21.40;99.90;;;;;;4438650;28;658432;-72
2021/06/23 06:15:16;;;;;;;26.40;15.67;;;21.40;99.90;;;;;;4418651;28;658906;-73
2021/06/23 06:18:05;;;;;;;27.53;15.73;;;21.30;99.90;;;;;;4411151;28;658865;-73
2021/06/23 06:20:57;;;;;;;29.37;15.67;;;21.30;99.90;;;;;;4432818;28;659580;-73
2021/06/23 06:23:46;;;;;;;24.00;14.10;;;21.30;99.90;;;;;;4429099;28;659034;-73
2021/06/23 06:26:33;;;;;;;25.17;13.17;;;21.30;99.90;;;;;;4423263;28;658574;-73
2021/06/23 06:29:22;;;;;;;24.50;13.00;;;21.20;99.90;;;;;;4436134;28;660097;-73
2021/06/23 06:32:10;;;;;;;18.50;11.80;;;21.00;99.90;;;;;;4413305;28;659164;-73
2021/06/23 06:34:58;;;;;;;21.97;12.63;;;20.90;99.90;;;;;;4427779;28;658879;-72
2021/06/23 06:37:46;;;;;;;20.30;12.40;;;20.80;99.90;;;;;;4445144;28;658949;-73
2021/06/23 06:40:34;;;;;;;20.60;12.20;;;20.90;99.90;;;;;;4424723;28;658424;-72
2021/06/23 06:43:22;;;;;;;21.40;10.97;;;20.90;99.90;;;;;;4435985;28;658945;-71
2021/06/23 06:46:11;;;;;;;18.13;9.97;;;21.00;99.90;;;;;;4421626;28;659612;-73
2021/06/23 06:48:58;;;;;;;18.23;10.90;;;21.10;99.90;;;;;;4423638;28;657950;-72
2021/06/23 06:51:46;;;;;;;16.90;11.23;;;21.20;99.90;;;;;;4441427;28;659156;-72
2021/06/23 06:54:34;;;;;;;17.90;10.90;;;21.30;99.90;;;;;;4415552;28;658896;-72
2021/06/23 06:57:21;;;;;;;17.47;11.23;;;21.30;99.90;;;;;;4435305;28;659130;-72
2021/06/23 07:00:10;;;;;;;17.37;11.37;;;21.30;99.90;;;;;;4423195;28;658798;-72
2021/06/23 07:02:59;;;;;;;25.50;14.07;;;21.30;99.90;;;;;;4427999;28;658987;-72
2021/06/23 07:05:47;;;;;;;23.47;14.77;;;21.40;99.90;;;;;;4447449;28;658807;-72
2021/06/23 07:08:35;;;;;;;24.87;15.67;;;21.60;99.90;;;;;;4417718;28;659326;-69
2021/06/23 07:11:23;;;;;;;25.25;15.52;;;21.60;99.90;;;;;;4416902;28;658791;-69
2021/06/23 07:14:11;;;;;;;26.83;16.27;;;21.60;99.90;;;;;;4443169;28;659311;-69
2021/06/23 07:16:58;;;;;;;30.40;17.17;;;21.60;99.90;;;;;;4411790;28;659302;-69
2021/06/23 07:19:47;;;;;;;30.17;16.97;;;21.60;99.90;;;;;;4437695;28;660218;-69
2021/06/23 07:22:35;;;;;;;26.20;16.53;;;21.80;99.90;;;;;;4419222;28;659164;-69
2021/06/23 07:25:23;;;;;;;27.87;17.47;;;21.80;99.90;;;;;;4439383;28;658991;-69
2021/06/23 07:28:13;;;;;;;26.30;16.00;;;21.80;99.90;;;;;;4451487;28;659420;-69
2021/06/23 07:31:05;;;;;;;25.07;15.07;;;21.80;99.90;;;;;;4425001;28;659469;-70
2021/06/23 07:33:58;;;;;;;28.20;15.60;;;21.70;99.90;;;;;;4437277;28;658339;-70
2021/06/23 07:36:48;;;;;;;29.07;16.27;;;21.60;99.90;;;;;;4416540;28;659367;-71
2021/06/23 07:39:36;;;;;;;24.37;15.57;;;21.50;99.90;;;;;;4427976;28;658779;-71
2021/06/23 07:42:26;;;;;;;28.33;15.80;;;21.50;99.90;;;;;;4431238;28;658252;-70
2021/06/23 07:45:17;;;;;;;25.23;15.93;;;21.70;99.90;;;;;;4422282;28;658712;-69
2021/06/23 07:48:05;;;;;;;24.87;14.93;;;21.80;99.90;;;;;;4402125;28;659755;-70
2021/06/23 07:51:02;;;;;;;26.63;14.93;;;21.90;99.90;;;;;;4416448;28;658771;-69
2021/06/23 07:54:06;;;;;;;23.90;14.97;;;22.00;99.90;;;;;;4419249;28;658773;-71
2021/06/23 08:09:31;;;;;;;26.90;15.60;;;21.50;99.90;;;;;;4329672;28;659689;-71
2021/06/23 08:12:24;;;;;;;28.97;18.30;;;21.50;99.90;;;;;;4332089;28;659632;-70
2021/06/23 08:15:12;;;;;;;27.10;15.97;;;21.60;99.90;;;;;;4369090;28;659302;-71
2021/06/23 08:18:00;;;;;;;26.23;16.63;;;21.70;99.90;;;;;;4367086;28;659123;-71
2021/06/23 08:20:49;;;;;;;33.63;18.83;;;21.60;99.90;;;;;;4380159;28;658823;-70
2021/06/23 08:23:36;;;;;;;30.30;17.80;;;21.50;99.90;;;;;;4394625;28;658739;-71
2021/06/23 08:26:25;;;;;;;38.23;19.97;;;21.50;99.90;;;;;;4373411;28;659167;-70
2021/06/23 08:29:13;;;;;;;33.40;19.23;;;21.40;99.90;;;;;;4341389;28;658921;-69
2021/06/23 08:32:02;;;;;;;40.27;21.73;;;21.30;99.90;;;;;;4362984;28;659117;-70
2021/06/23 08:34:50;;;;;;;42.60;23.40;;;21.30;99.90;;;;;;4337465;28;659863;-71
2021/06/23 08:37:38;;;;;;;37.27;22.30;;;21.30;99.90;;;;;;4350756;28;658601;-69
2021/06/23 08:40:26;;;;;;;42.77;23.60;;;21.40;99.90;;;;;;4360203;28;659987;-69
2021/06/23 08:43:15;;;;;;;47.27;27.57;;;21.70;99.90;;;;;;4341215;28;658874;-69
2021/06/23 08:46:04;;;;;;;47.83;27.93;;;21.80;99.90;;;;;;4340702;28;658752;-69
2021/06/23 08:48:52;;;;;;;41.57;23.77;;;22.00;99.90;;;;;;4387544;28;659118;-69
2021/06/23 08:51:40;;;;;;;42.57;24.07;;;22.20;99.90;;;;;;4411870;28;658648;-69
2021/06/23 08:54:29;;;;;;;42.30;26.00;;;22.30;99.90;;;;;;4410342;28;658603;-69
2021/06/23 08:57:16;;;;;;;45.70;26.97;;;22.60;99.90;;;;;;4430098;28;659068;-69
2021/06/23 09:00:07;;;;;;;42.93;28.93;;;22.70;99.90;;;;;;4410786;28;658288;-69
2021/06/23 09:03:00;;;;;;;46.93;27.40;;;22.80;99.90;;;;;;4407000;28;660164;-69
2021/06/23 09:05:49;;;;;;;44.73;26.33;;;23.00;99.90;;;;;;4443357;28;659753;-70
2021/06/23 09:08:37;;;;;;;43.13;26.97;;;22.90;99.90;;;;;;4443770;28;659147;-69
2021/06/23 09:11:25;;;;;;;46.80;27.53;;;23.10;99.90;;;;;;4415282;28;659433;-70
2021/06/23 09:14:13;;;;;;;42.80;26.60;;;23.10;99.90;;;;;;4424794;28;659371;-70
2021/06/23 09:17:10;;;;;;;46.83;26.20;;;23.10;99.90;;;;;;4443344;28;660073;-70
2021/06/23 09:19:59;;;;;;;43.53;26.07;;;23.20;99.90;;;;;;4407658;28;659080;-69
2021/06/23 09:22:46;;;;;;;40.53;26.77;;;23.30;99.90;;;;;;4438635;28;658669;-70
2021/06/23 09:25:36;;;;;;;39.40;24.20;;;23.60;99.90;;;;;;4425486;28;658980;-69
2021/06/23 09:28:24;;;;;;;39.93;23.67;;;23.80;99.90;;;;;;4412116;28;658525;-70
2021/06/23 09:31:12;;;;;;;41.97;25.33;;;23.80;99.90;;;;;;4431024;28;659024;-70
2021/06/23 09:34:02;;;;;;;49.93;26.63;;;23.70;99.90;;;;;;4430836;28;659647;-71
2021/06/23 09:36:50;;;;;;;46.30;28.87;;;23.80;99.90;;;;;;4408741;28;659596;-70
2021/06/23 09:39:38;;;;;;;50.57;29.73;;;23.90;99.90;;;;;;4430738;28;658880;-70
2021/06/23 09:42:32;;;;;;;53.70;30.30;;;24.00;99.90;;;;;;4448913;28;660563;-70
2021/06/23 09:45:20;;;;;;;47.42;29.55;;;24.10;99.90;;;;;;4383505;28;659617;-69
2021/06/23 09:48:09;;;;;;;50.37;30.27;;;24.00;99.90;;;;;;4417924;28;658862;-70
2021/06/23 09:51:12;;;;;;;47.43;30.40;;;24.10;99.90;;;;;;4430901;28;659620;-70
2021/06/23 09:54:01;;;;;;;50.72;32.72;;;24.20;99.90;;;;;;4418736;28;658931;-70
2021/06/23 09:56:49;;;;;;;51.30;31.87;;;24.10;99.90;;;;;;4421855;28;658998;-70
2021/06/23 09:59:37;;;;;;;50.67;32.27;;;24.00;99.90;;;;;;4435761;28;659291;-70
2021/06/23 10:02:26;;;;;;;51.42;30.67;;;23.80;99.90;;;;;;4420267;28;659478;-70
2021/06/23 10:05:26;;;;;;;48.33;30.50;;;23.70;99.90;;;;;;4409523;28;658760;-70
2021/06/23 10:08:22;;;;;;;48.40;30.43;;;23.60;99.90;;;;;;4389278;28;660374;-70
2021/06/23 10:11:10;;;;;;;50.15;30.13;;;23.60;99.90;;;;;;4388814;28;659310;-70
2021/06/23 10:13:58;;;;;;;50.03;30.23;;;23.60;99.90;;;;;;4432342;28;658670;-70
2021/06/23 10:16:45;;;;;;;51.00;31.30;;;23.60;99.90;;;;;;4428226;28;659506;-71
2021/06/23 10:19:33;;;;;;;51.30;30.77;;;23.50;99.90;;;;;;4395427;28;658439;-70
2021/06/23 10:22:20;;;;;;;57.70;30.37;;;23.50;99.90;;;;;;4414240;28;659973;-70
2021/06/23 10:25:11;;;;;;;51.77;31.33;;;23.40;99.90;;;;;;4406918;28;658255;-70
2021/06/23 10:27:59;;;;;;;47.53;28.90;;;23.30;99.90;;;;;;4421682;28;658467;-71
2021/06/23 10:30:46;;;;;;;47.47;28.93;;;23.40;99.90;;;;;;4445383;28;659117;-71
2021/06/23 10:33:33;;;;;;;47.97;28.43;;;23.20;99.90;;;;;;4429843;28;658760;-71
2021/06/23 10:36:22;;;;;;;48.17;27.70;;;23.20;99.90;;;;;;4448496;28;659439;-71
2021/06/23 10:39:10;;;;;;;51.53;28.30;;;23.30;99.90;;;;;;4418704;28;660045;-71
2021/06/23 10:42:00;;;;;;;40.23;26.90;;;23.30;99.90;;;;;;4427350;28;658791;-70
2021/06/23 10:44:53;;;;;;;44.13;26.70;;;23.30;99.90;;;;;;4413136;28;659309;-71
2021/06/23 10:47:42;;;;;;;41.57;25.77;;;23.40;99.90;;;;;;4415832;28;659882;-71
2021/06/23 10:50:32;;;;;;;35.93;23.73;;;23.30;99.90;;;;;;4417698;28;660709;-71
2021/06/23 10:53:33;;;;;;;41.67;25.20;;;23.30;99.90;;;;;;4414910;28;660730;-71
2021/06/23 10:56:41;;;;;;;39.90;24.83;;;23.20;99.90;;;;;;4384691;28;659818;-71
2021/06/23 10:59:33;;;;;;;38.47;24.27;;;23.30;99.90;;;;;;4399720;28;660313;-71
2021/06/23 11:02:34;;;;;;;43.88;26.70;;;23.30;99.90;;;;;;4420887;28;659927;-71
2021/06/23 11:05:21;;;;;;;42.00;25.17;;;23.30;99.90;;;;;;4415672;28;658664;-72
2021/06/23 11:08:26;;;;;;;47.57;26.67;;;23.30;99.90;;;;;;4429374;28;658628;-71
2021/06/23 11:11:14;;;;;;;43.13;25.33;;;23.30;99.90;;;;;;4392562;28;659365;-71
2021/06/23 11:14:15;;;;;;;37.97;24.20;;;23.30;99.90;;;;;;4441899;28;658828;-72
2021/06/23 11:17:32;;;;;;;38.13;24.73;;;23.20;99.90;;;;;;4403222;28;659423;-71
2021/06/23 11:23:44;;;;;;;45.30;23.67;;;23.60;99.90;;;;;;4438682;28;659184;-72
2021/06/23 11:27:03;;;;;;;38.67;24.63;;;23.90;99.90;;;;;;4400763;28;659774;-72
2021/06/23 11:29:55;;;;;;;43.00;24.67;;;24.10;99.90;;;;;;4367202;28;659351;-73
2021/06/23 11:32:44;;;;;;;37.13;23.40;;;24.30;99.90;;;;;;4418329;28;659188;-70
2021/06/23 11:35:32;;;;;;;44.72;25.88;;;24.60;99.90;;;;;;4413281;28;659361;-72
2021/06/23 11:38:21;;;;;;;41.22;24.80;;;24.70;99.90;;;;;;4399826;28;660686;-72
2021/06/23 11:41:09;;;;;;;45.03;26.83;;;24.90;99.90;;;;;;4410638;28;658418;-72
2021/06/23 11:43:57;;;;;;;40.15;24.77;;;25.10;99.90;;;;;;4413899;28;660453;-72
2021/06/23 11:46:45;;;;;;;49.83;26.02;;;25.40;99.90;;;;;;4407314;28;659858;-73
2021/06/23 11:49:34;;;;;;;46.28;24.40;;;25.30;99.90;;;;;;4413546;28;658717;-73
2021/06/23 11:52:22;;;;;;;45.10;25.25;;;25.50;99.90;;;;;;4390148;28;659310;-73
2021/06/23 11:55:12;;;;;;;40.55;24.23;;;25.70;99.90;;;;;;4383674;28;658680;-72
2021/06/23 11:58:00;;;;;;;43.28;24.27;;;25.90;99.90;;;;;;4384195;28;660120;-72
2021/06/23 12:00:48;;;;;;;38.30;23.60;;;25.90;99.90;;;;;;4394241;28;658625;-71
2021/06/23 12:03:36;;;;;;;35.08;22.60;;;26.20;99.90;;;;;;4429923;28;659693;-72
2021/06/23 12:06:25;;;;;;;34.30;22.73;;;26.00;99.90;;;;;;4413610;28;658649;-71
2021/06/23 12:09:13;;;;;;;38.47;22.50;;;26.00;99.90;;;;;;4443584;28;659046;-70
2021/06/23 12:12:01;;;;;;;37.28;21.88;;;26.10;99.90;;;;;;4411783;28;659242;-73
2021/06/23 12:14:48;;;;;;;40.53;21.88;;;26.00;99.90;;;;;;4393346;28;658508;-74
2021/06/23 12:17:37;;;;;;;35.65;22.38;;;25.80;99.90;;;;;;4428349;28;659398;-73
2021/06/23 12:20:30;;;;;;;38.40;22.60;;;25.60;99.90;;;;;;4422359;28;659800;-73
2021/06/23 12:23:19;;;;;;;38.85;23.63;;;25.60;99.90;;;;;;4388737;28;658467;-70
2021/06/23 12:26:07;;;;;;;39.45;22.80;;;25.50;99.90;;;;;;4412390;28;659441;-73
2021/06/23 12:28:54;;;;;;;33.80;21.88;;;25.50;99.90;;;;;;4410609;28;659964;-72
2021/06/23 12:31:42;;;;;;;38.95;22.60;;;25.60;99.90;;;;;;4434744;28;659023;-73
2021/06/23 12:34:30;;;;;;;40.47;23.40;;;25.80;99.90;;;;;;4420862;28;660355;-72
2021/06/23 12:37:18;;;;;;;39.15;23.55;;;25.70;99.90;;;;;;4434694;28;658611;-71
2021/06/23 12:40:08;;;;;;;42.65;24.25;;;25.90;99.90;;;;;;4429245;28;659799;-73
2021/06/23 12:43:00;;;;;;;39.13;23.02;;;26.20;99.90;;;;;;4412408;28;659729;-73
2021/06/23 12:45:50;;;;;;;35.65;21.85;;;26.20;99.90;;;;;;4415491;28;658760;-70
2021/06/23 12:48:38;;;;;;;36.45;23.33;;;26.40;99.90;;;;;;4411490;28;658882;-72
2021/06/23 12:51:28;;;;;;;40.22;22.92;;;26.50;99.90;;;;;;4430802;28;659299;-73
2021/06/23 12:54:16;;;;;;;40.75;23.38;;;26.50;99.90;;;;;;4423775;28;659571;-74
2021/06/23 12:57:06;;;;;;;39.08;23.95;;;26.50;99.90;;;;;;4411987;28;658310;-71
2021/06/23 12:59:54;;;;;;;36.55;23.00;;;26.50;99.90;;;;;;4427890;28;659455;-73
2021/06/23 13:02:43;;;;;;;39.45;23.20;;;26.60;99.90;;;;;;4434278;28;659966;-72
2021/06/23 13:05:33;;;;;;;35.97;23.58;;;26.50;99.90;;;;;;4406880;28;658795;-73
2021/06/23 13:08:20;;;;;;;40.75;24.38;;;26.70;99.90;;;;;;4417270;28;660271;-72
2021/06/23 13:11:08;;;;;;;35.53;22.15;;;26.60;99.90;;;;;;4422772;28;658382;-71
2021/06/23 13:13:57;;;;;;;33.55;22.17;;;26.70;99.90;;;;;;4443966;28;659391;-73
2021/06/23 13:16:46;;;;;;;36.60;21.30;;;27.00;99.90;;;;;;4413496;28;658897;-73
2021/06/23 13:19:34;;;;;;;32.28;19.13;;;27.00;99.90;;;;;;4405241;28;659050;-72
2021/06/23 13:22:22;;;;;;;36.92;17.83;;;27.10;99.90;;;;;;4433997;28;659131;-71
2021/06/23 13:25:10;;;;;;;25.25;17.10;;;27.10;99.90;;;;;;4407078;28;659474;-73
2021/06/23 13:27:58;;;;;;;28.55;17.35;;;27.00;99.90;;;;;;4413335;28;658601;-71
2021/06/23 13:30:47;;;;;;;26.48;16.27;;;27.10;99.90;;;;;;4432664;28;659157;-73
2021/06/23 13:33:35;;;;;;;28.27;18.20;;;27.10;99.90;;;;;;4401976;28;660280;-72
2021/06/23 13:36:22;;;;;;;28.05;17.50;;;27.00;99.90;;;;;;4429774;28;659280;-73
2021/06/23 13:39:11;;;;;;;25.30;17.15;;;27.00;99.90;;;;;;4418609;28;659069;-73
2021/06/23 13:41:58;;;;;;;28.98;17.30;;;27.00;99.90;;;;;;4426645;28;659789;-73
2021/06/23 13:44:46;;;;;;;30.38;16.45;;;26.90;99.90;;;;;;4437432;28;659355;-73
2021/06/23 13:47:35;;;;;;;28.02;17.15;;;26.80;99.90;;;;;;4427225;28;658874;-72
2021/06/23 13:50:23;;;;;;;24.90;16.45;;;27.10;99.90;;;;;;4422752;28;659241;-71
2021/06/23 13:53:10;;;;;;;28.13;17.15;;;27.30;99.90;;;;;;4447799;28;660258;-73
2021/06/23 13:55:58;;;;;;;29.90;17.95;;;27.30;99.90;;;;;;4422433;28;659235;-72
2021/06/23 13:58:46;;;;;;;25.35;17.70;;;27.40;99.90;;;;;;4432533;28;659846;-73
2021/06/23 14:01:33;;;;;;;30.95;17.15;;;27.60;99.90;;;;;;4413706;28;658733;-73
2021/06/23 14:04:26;;;;;;;26.95;16.70;;;27.60;99.90;;;;;;4432667;28;659260;-73
2021/06/23 14:07:14;;;;;;;26.95;18.27;;;27.60;99.90;;;;;;4404699;28;658643;-72
2021/06/23 14:10:03;;;;;;;31.80;17.88;;;27.70;99.90;;;;;;4442204;28;658849;-72
2021/06/23 14:12:50;;;;;;;27.33;16.50;;;27.60;99.90;;;;;;4407453;28;659546;-73
2021/06/23 14:15:38;;;;;;;23.23;16.25;;;27.70;99.90;;;;;;4412770;28;659063;-72
2021/06/23 14:18:26;;;;;;;30.88;17.83;;;27.60;99.90;;;;;;4431093;28;659905;-73
2021/06/23 14:21:18;;;;;;;27.60;16.23;;;27.80;99.90;;;;;;4412906;28;658318;-74
2021/06/23 14:24:07;;;;;;;26.85;18.25;;;27.80;99.90;;;;;;4408791;28;660452;-73